createdAt,value
2022-08-27T00:00:17.908Z,22.53
2022-08-27T00:03:22.722Z,22.48
2022-08-27T00:06:30.221Z,22.45
2022-08-27T00:09:36.770Z,22.43
2022-08-27T00:12:43.361Z,22.44
2022-08-27T00:15:43.147Z,22.41
2022-08-27T00:18:49.966Z,22.38
2022-08-27T00:21:57.133Z,22.31
2022-08-27T00:25:04.199Z,22.28
2022-08-27T00:28:04.236Z,22.17
2022-08-27T00:30:56.187Z,22.17
2022-08-27T00:34:00.891Z,22.15
2022-08-27T00:37:05.786Z,22.11
2022-08-27T00:40:10.950Z,22.25
2022-08-27T00:43:17.167Z,21.95
2022-08-27T00:46:39.024Z,22.01
2022-08-27T00:50:13.782Z,21.96
2022-08-27T00:53:29.724Z,21.90
2022-08-27T00:56:39.296Z,21.87
2022-08-27T00:59:45.553Z,21.85
2022-08-27T01:02:53.098Z,21.86
2022-08-27T01:05:52.728Z,21.86
2022-08-27T01:09:06.771Z,21.80
2022-08-27T01:12:12.476Z,21.76
2022-08-27T01:15:23.076Z,21.74
2022-08-27T01:18:29.308Z,21.69
2022-08-27T01:21:42.788Z,21.68
2022-08-27T01:24:59.753Z,21.73
2022-08-27T01:28:07.704Z,21.72
2022-08-27T01:31:12.893Z,21.71
2022-08-27T01:34:19.677Z,21.73
2022-08-27T01:37:25.482Z,21.75
2022-08-27T01:40:33.070Z,21.75
2022-08-27T01:43:39.939Z,21.79
2022-08-27T01:46:46.466Z,21.87
2022-08-27T01:49:52.126Z,21.85
2022-08-27T01:52:57.953Z,21.84
2022-08-27T01:56:03.438Z,21.86
2022-08-27T01:59:10.357Z,21.80
2022-08-27T02:02:15.666Z,21.77
2022-08-27T02:05:22.238Z,21.85
2022-08-27T02:08:29.367Z,21.82
2022-08-27T02:11:28.058Z,21.86
2022-08-27T02:14:33.597Z,21.83
2022-08-27T02:17:39.167Z,21.83
2022-08-27T02:20:45.174Z,21.83
2022-08-27T02:23:51.956Z,21.82
2022-08-27T02:26:59.683Z,21.80
2022-08-27T02:30:05.281Z,21.85
2022-08-27T02:33:04.883Z,21.87
2022-08-27T02:36:09.389Z,21.85
2022-08-27T02:39:14.159Z,21.90
2022-08-27T02:42:20.401Z,21.89
2022-08-27T02:45:27.272Z,21.85
2022-08-27T02:48:32.839Z,21.77
2022-08-27T02:51:38.479Z,21.72
2022-08-27T02:54:44.824Z,21.79
2022-08-27T02:57:51.387Z,21.86
2022-08-27T03:00:58.435Z,21.73
2022-08-27T03:04:04.064Z,21.74
2022-08-27T03:07:18.632Z,21.76
2022-08-27T03:10:18.187Z,21.81
2022-08-27T03:13:23.924Z,21.69
2022-08-27T03:16:30.443Z,21.79
2022-08-27T03:19:35.075Z,21.76
2022-08-27T03:22:42.048Z,21.74
2022-08-27T03:25:48.586Z,21.66
2022-08-27T03:28:55.340Z,21.62
2022-08-27T03:32:01.099Z,21.57
2022-08-27T03:35:07.631Z,21.48
2022-08-27T03:38:13.809Z,21.48
2022-08-27T03:41:20.526Z,21.49
2022-08-27T03:44:26.220Z,21.50
2022-08-27T03:47:32.976Z,21.51
2022-08-27T03:50:39.065Z,21.53
2022-08-27T03:53:44.141Z,21.53
2022-08-27T03:56:49.544Z,21.56
2022-08-27T03:59:56.492Z,21.62
2022-08-27T04:03:06.924Z,21.64
2022-08-27T04:06:12.716Z,21.75
2022-08-27T04:09:18.098Z,21.84
2022-08-27T04:12:22.903Z,21.96
2022-08-27T04:15:29.142Z,22.02
2022-08-27T04:18:37.723Z,22.12
2022-08-27T04:21:44.104Z,22.20
2022-08-27T04:24:51.469Z,22.22
2022-08-27T04:27:57.823Z,22.34
2022-08-27T04:31:03.589Z,22.34
2022-08-27T04:34:09.830Z,22.35
2022-08-27T04:37:15.126Z,22.44
2022-08-27T04:40:23.115Z,22.59
2022-08-27T04:43:28.046Z,22.58
2022-08-27T04:46:43.197Z,22.72
2022-08-27T04:49:49.813Z,22.93
2022-08-27T04:52:55.970Z,23.00
2022-08-27T04:56:03.172Z,23.02
2022-08-27T04:59:10.480Z,23.06
2022-08-27T05:02:17.889Z,23.16
2022-08-27T05:05:24.280Z,23.37
2022-08-27T05:08:30.334Z,23.44
2022-08-27T05:11:39.479Z,23.55
2022-08-27T05:14:45.052Z,23.61
2022-08-27T05:17:51.079Z,23.79
2022-08-27T05:21:00.722Z,23.93
2022-08-27T05:24:06.105Z,24.13
2022-08-27T05:27:13.083Z,24.18
2022-08-27T05:30:19.608Z,24.39
2022-08-27T05:33:28.327Z,24.44
2022-08-27T05:36:37.101Z,24.67
2022-08-27T05:39:36.377Z,24.67
2022-08-27T05:42:42.641Z,24.76
2022-08-27T05:45:57.617Z,24.89
2022-08-27T05:49:04.610Z,25.08
2022-08-27T05:52:09.553Z,25.23
2022-08-27T05:55:15.471Z,25.38
2022-08-27T05:58:23.284Z,25.41
2022-08-27T06:01:29.862Z,25.55
2022-08-27T06:04:35.481Z,25.55
2022-08-27T06:07:42.755Z,25.69
2022-08-27T06:10:49.748Z,25.87
2022-08-27T06:13:56.115Z,25.86
2022-08-27T06:17:02.034Z,26.00
2022-08-27T06:20:07.666Z,26.06
2022-08-27T06:23:13.619Z,26.06
2022-08-27T06:26:21.672Z,26.13
2022-08-27T06:29:28.378Z,26.21
2022-08-27T06:32:33.637Z,26.30
2022-08-27T06:35:39.759Z,26.38
2022-08-27T06:38:44.863Z,26.45
2022-08-27T06:41:50.788Z,26.55
2022-08-27T06:44:57.109Z,26.51
2022-08-27T06:48:03.136Z,26.57
2022-08-27T06:51:09.868Z,26.55
2022-08-27T06:54:18.772Z,26.71
2022-08-27T06:57:24.037Z,26.78
2022-08-27T07:00:29.739Z,26.94
2022-08-27T07:03:35.684Z,27.00
2022-08-27T07:06:41.690Z,26.92
2022-08-27T07:09:48.508Z,26.94
2022-08-27T07:12:55.080Z,26.87
2022-08-27T07:16:01.109Z,27.07
2022-08-27T07:19:10.003Z,27.09
2022-08-27T07:22:17.545Z,27.20
2022-08-27T07:25:26.289Z,27.32
2022-08-27T07:28:31.601Z,27.33
2022-08-27T07:31:37.855Z,27.38
2022-08-27T07:34:43.258Z,27.40
2022-08-27T07:37:50.655Z,27.36
2022-08-27T07:40:59.085Z,27.34
2022-08-27T07:44:23.239Z,27.32
2022-08-27T07:47:29.498Z,27.39
2022-08-27T07:50:36.240Z,27.47
2022-08-27T07:53:44.059Z,27.54
2022-08-27T07:56:55.475Z,27.61
2022-08-27T07:59:35.820Z,27.71
2022-08-27T08:02:28.612Z,27.71
2022-08-27T08:05:24.040Z,27.73
2022-08-27T08:08:30.169Z,27.85
2022-08-27T08:11:35.870Z,27.95
2022-08-27T08:14:41.810Z,28.01
2022-08-27T08:17:49.551Z,28.15
2022-08-27T08:20:58.523Z,28.23
2022-08-27T08:24:03.995Z,28.30
2022-08-27T08:27:07.115Z,28.31
2022-08-27T08:30:10.117Z,28.31
2022-08-27T08:33:17.071Z,28.32
2022-08-27T08:36:27.796Z,28.41
2022-08-27T08:39:35.275Z,28.43
2022-08-27T08:43:00.265Z,28.38
2022-08-27T08:46:05.902Z,28.48
2022-08-27T08:49:15.491Z,28.46
2022-08-27T08:52:31.370Z,28.52
2022-08-27T08:56:01.253Z,28.63
2022-08-27T08:59:26.251Z,28.74
2022-08-27T09:02:31.434Z,28.93
2022-08-27T09:05:38.202Z,28.88
2022-08-27T09:08:56.043Z,28.81
2022-08-27T09:12:21.669Z,28.76
2022-08-27T09:15:36.952Z,28.77
2022-08-27T09:18:42.904Z,28.88
2022-08-27T09:22:13.170Z,29.03
2022-08-27T09:25:36.821Z,29.07
2022-08-27T09:28:54.763Z,29.23
2022-08-27T09:32:14.005Z,29.24
2022-08-27T09:35:24.086Z,29.12
2022-08-27T09:38:37.527Z,28.96
2022-08-27T09:41:46.442Z,28.83
2022-08-27T09:45:00.327Z,28.82
2022-08-27T09:48:11.990Z,28.70
2022-08-27T09:51:30.572Z,28.74
2022-08-27T09:55:01.853Z,28.92
2022-08-27T09:58:09.426Z,29.07
2022-08-27T10:01:20.612Z,29.26
2022-08-27T10:04:29.923Z,29.65
2022-08-27T10:08:00.514Z,29.83
2022-08-27T10:11:16.399Z,30.00
2022-08-27T10:14:40.135Z,30.32
2022-08-27T10:17:58.973Z,30.44
2022-08-27T10:21:30.588Z,30.41
2022-08-27T10:24:53.892Z,30.26
2022-08-27T10:28:20.050Z,30.31
2022-08-27T10:31:34.076Z,30.24
2022-08-27T10:34:58.001Z,30.25
2022-08-27T10:38:30.598Z,30.25
2022-08-27T10:41:45.401Z,30.34
2022-08-27T10:45:07.955Z,30.40
2022-08-27T10:48:45.822Z,30.43
2022-08-27T10:51:57.420Z,30.46
2022-08-27T10:55:17.970Z,30.47
2022-08-27T10:58:50.759Z,30.60
2022-08-27T11:02:04.327Z,30.66
2022-08-27T11:05:14.474Z,30.69
2022-08-27T11:08:43.432Z,30.80
2022-08-27T11:12:13.737Z,30.84
2022-08-27T11:15:20.971Z,30.69
2022-08-27T11:18:46.742Z,30.65
2022-08-27T11:21:58.659Z,30.63
2022-08-27T11:25:38.587Z,30.79
2022-08-27T11:28:56.932Z,30.89
2022-08-27T11:32:16.896Z,31.07
2022-08-27T11:35:58.320Z,31.10
2022-08-27T11:39:11.941Z,31.10
2022-08-27T11:42:43.147Z,31.20
2022-08-27T11:45:52.399Z,31.28
2022-08-27T11:49:01.474Z,31.28
2022-08-27T11:52:19.360Z,31.28
2022-08-27T11:55:38.209Z,31.28
2022-08-27T11:58:53.490Z,31.35
2022-08-27T12:01:52.074Z,31.26
2022-08-27T12:04:57.843Z,31.22
2022-08-27T12:08:07.132Z,31.33
2022-08-27T12:11:48.656Z,31.45
2022-08-27T12:15:06.400Z,31.45
2022-08-27T12:18:31.951Z,31.71
2022-08-27T12:21:42.553Z,31.71
2022-08-27T12:25:10.267Z,31.89
2022-08-27T12:28:18.941Z,31.93
2022-08-27T12:31:24.678Z,31.97
2022-08-27T12:34:42.898Z,31.93
2022-08-27T12:38:13.933Z,32.04
2022-08-27T12:41:21.300Z,32.17
2022-08-27T12:44:43.442Z,32.25
2022-08-27T12:47:53.517Z,32.22
2022-08-27T12:50:58.145Z,32.17
2022-08-27T12:54:58.528Z,32.22
2022-08-27T12:58:47.380Z,32.14
2022-08-27T13:02:13.007Z,32.05
2022-08-27T13:05:19.942Z,32.05
2022-08-27T13:08:39.808Z,32.14
2022-08-27T13:11:48.432Z,32.30
2022-08-27T13:14:57.222Z,32.27
2022-08-27T13:18:02.381Z,32.11
2022-08-27T13:21:18.493Z,32.00
2022-08-27T13:24:25.471Z,31.99
2022-08-27T13:27:30.248Z,31.97
2022-08-27T13:30:37.294Z,31.89
2022-08-27T13:33:52.745Z,31.90
2022-08-27T13:37:17.864Z,31.76
2022-08-27T13:40:23.935Z,31.62
2022-08-27T13:43:30.542Z,31.56
2022-08-27T13:46:45.511Z,31.49
2022-08-27T13:49:52.524Z,31.47
2022-08-27T13:53:15.782Z,31.43
2022-08-27T13:56:21.610Z,31.33
2022-08-27T13:59:35.048Z,31.32
2022-08-27T14:02:55.407Z,31.37
2022-08-27T14:05:58.997Z,31.37
2022-08-27T14:09:05.101Z,31.28
2022-08-27T14:12:19.305Z,31.11
2022-08-27T14:15:45.896Z,30.95
2022-08-27T14:18:59.348Z,30.95
2022-08-27T14:22:00.358Z,30.95
2022-08-27T14:25:06.445Z,30.90
2022-08-27T14:28:12.041Z,30.71
2022-08-27T14:31:19.388Z,30.74
2022-08-27T14:34:25.143Z,30.74
2022-08-27T14:37:30.163Z,30.61
2022-08-27T14:40:29.621Z,30.58
2022-08-27T14:43:35.659Z,30.61
2022-08-27T14:46:46.712Z,30.58
2022-08-27T14:49:56.563Z,30.40
2022-08-27T14:53:02.847Z,30.30
2022-08-27T14:56:12.278Z,30.20
2022-08-27T14:59:18.186Z,30.23
2022-08-27T15:02:26.738Z,30.36
2022-08-27T15:05:33.341Z,30.37
2022-08-27T15:08:40.071Z,30.36
2022-08-27T15:11:49.470Z,29.90
2022-08-27T15:14:56.166Z,29.75
2022-08-27T15:18:01.812Z,29.76
2022-08-27T15:21:08.651Z,29.72
2022-08-27T15:24:20.750Z,29.65
2022-08-27T15:27:32.161Z,29.67
2022-08-27T15:30:39.153Z,29.49
2022-08-27T15:33:44.569Z,29.37
2022-08-27T15:36:50.955Z,29.22
2022-08-27T15:39:56.361Z,29.13
2022-08-27T15:43:07.450Z,28.98
2022-08-27T15:46:12.659Z,28.78
2022-08-27T15:49:19.977Z,28.64
2022-08-27T15:52:33.461Z,28.58
2022-08-27T15:55:37.155Z,28.83
2022-08-27T15:58:44.180Z,28.77
2022-08-27T16:01:50.454Z,28.77
2022-08-27T16:04:56.715Z,28.77
2022-08-27T16:08:01.647Z,28.80
2022-08-27T16:11:07.777Z,28.88
2022-08-27T16:14:14.727Z,29.01
2022-08-27T16:17:21.639Z,28.86
2022-08-27T16:20:31.655Z,28.84
2022-08-27T16:23:37.985Z,28.79
2022-08-27T16:26:42.799Z,28.76
2022-08-27T16:29:47.200Z,28.76
2022-08-27T16:32:52.518Z,28.99
2022-08-27T16:35:58.467Z,28.63
2022-08-27T16:39:04.648Z,28.53
2022-08-27T16:42:10.054Z,28.52
2022-08-27T16:45:15.336Z,28.50
2022-08-27T16:48:37.991Z,28.48
2022-08-27T16:51:45.590Z,28.39
2022-08-27T16:54:50.628Z,28.35
2022-08-27T16:57:56.366Z,28.26
2022-08-27T17:01:05.999Z,28.27
2022-08-27T17:04:21.550Z,28.27
2022-08-27T17:07:21.511Z,28.30
2022-08-27T17:10:28.080Z,28.26
2022-08-27T17:13:39.472Z,28.24
2022-08-27T17:16:49.661Z,28.17
2022-08-27T17:19:56.222Z,28.21
2022-08-27T17:23:03.088Z,28.16
2022-08-27T17:26:09.747Z,28.09
2022-08-27T17:29:16.351Z,28.12
2022-08-27T17:32:22.613Z,28.16
2022-08-27T17:35:28.932Z,28.10
2022-08-27T17:38:36.575Z,28.09
2022-08-27T17:41:51.051Z,28.07
2022-08-27T17:44:57.035Z,28.06
2022-08-27T17:48:06.117Z,28.01
2022-08-27T17:51:11.664Z,27.96
2022-08-27T17:54:18.579Z,27.91
2022-08-27T17:57:45.167Z,27.88
2022-08-27T18:00:53.537Z,27.85
2022-08-27T18:04:00.239Z,27.76
2022-08-27T18:07:05.872Z,27.60
2022-08-27T18:10:12.613Z,27.57
2022-08-27T18:13:21.838Z,27.43
2022-08-27T18:16:27.741Z,27.43
2022-08-27T18:19:32.732Z,27.59
2022-08-27T18:22:40.985Z,27.48
2022-08-27T18:25:39.222Z,27.40
2022-08-27T18:28:26.646Z,27.33
2022-08-27T18:31:19.811Z,27.37
2022-08-27T18:34:18.744Z,27.29
2022-08-27T18:37:14.640Z,27.23
2022-08-27T18:40:21.666Z,27.24
2022-08-27T18:43:28.407Z,27.17
2022-08-27T18:46:33.596Z,27.25
2022-08-27T18:49:41.420Z,27.26
2022-08-27T18:52:46.953Z,27.22
2022-08-27T18:55:53.322Z,26.97
2022-08-27T18:58:59.815Z,26.95
2022-08-27T19:02:05.567Z,26.74
2022-08-27T19:05:12.339Z,26.85
2022-08-27T19:08:12.549Z,26.83
2022-08-27T19:11:19.194Z,26.87
2022-08-27T19:14:24.837Z,27.05
2022-08-27T19:17:41.949Z,26.98
2022-08-27T19:20:48.696Z,26.94
2022-08-27T19:23:56.571Z,26.79
2022-08-27T19:27:04.006Z,26.73
2022-08-27T19:30:10.575Z,26.66
2022-08-27T19:33:15.855Z,26.65
2022-08-27T19:36:21.718Z,26.64
2022-08-27T19:39:27.367Z,26.73
2022-08-27T19:42:32.812Z,26.67
2022-08-27T19:45:39.862Z,26.81
2022-08-27T19:48:44.885Z,26.51
2022-08-27T19:51:50.609Z,26.44
2022-08-27T19:55:13.112Z,26.41
2022-08-27T19:57:57.146Z,26.36
2022-08-27T20:01:03.408Z,26.34
2022-08-27T20:04:09.298Z,26.31
2022-08-27T20:07:15.152Z,26.25
2022-08-27T20:10:21.633Z,26.11
2022-08-27T20:13:31.070Z,26.05
2022-08-27T20:16:26.669Z,26.08
2022-08-27T20:19:34.102Z,26.17
2022-08-27T20:22:40.065Z,25.96
2022-08-27T20:25:49.532Z,25.80
2022-08-27T20:28:55.219Z,25.76
2022-08-27T20:32:00.913Z,25.64
2022-08-27T20:35:06.316Z,25.65
2022-08-27T20:38:13.172Z,25.60
2022-08-27T20:41:18.581Z,25.47
2022-08-27T20:44:24.514Z,25.40
2022-08-27T20:47:31.125Z,25.42
2022-08-27T20:50:36.486Z,25.37
2022-08-27T20:53:42.110Z,25.36
2022-08-27T20:56:52.826Z,25.22
2022-08-27T21:00:15.267Z,25.30
2022-08-27T21:03:21.644Z,25.11
2022-08-27T21:06:30.029Z,25.10
2022-08-27T21:09:35.353Z,25.19
2022-08-27T21:12:43.031Z,25.04
2022-08-27T21:15:49.794Z,24.90
2022-08-27T21:19:00.912Z,24.84
2022-08-27T21:22:07.611Z,24.79
2022-08-27T21:25:14.338Z,24.81
2022-08-27T21:28:21.246Z,24.73
2022-08-27T21:31:27.355Z,24.89
2022-08-27T21:34:35.520Z,24.77
2022-08-27T21:37:40.287Z,24.63
2022-08-27T21:40:46.318Z,24.63
2022-08-27T21:43:45.918Z,24.62
2022-08-27T21:46:51.905Z,24.57
2022-08-27T21:49:57.996Z,24.58
2022-08-27T21:53:03.215Z,24.52
2022-08-27T21:56:09.223Z,24.50
2022-08-27T21:59:16.554Z,24.53
2022-08-27T22:02:39.243Z,24.50
2022-08-27T22:05:31.597Z,24.38
2022-08-27T22:08:36.613Z,24.23
2022-08-27T22:11:42.669Z,24.14
2022-08-27T22:14:50.202Z,24.13
2022-08-27T22:17:56.355Z,23.94
2022-08-27T22:21:02.925Z,23.95
2022-08-27T22:24:09.407Z,23.98
2022-08-27T22:27:14.865Z,24.00
2022-08-27T22:30:20.512Z,23.88
2022-08-27T22:33:26.176Z,23.89
2022-08-27T22:36:30.924Z,24.01
2022-08-27T22:39:36.004Z,23.98
2022-08-27T22:42:41.437Z,23.95
2022-08-27T22:45:47.993Z,24.06
2022-08-27T22:48:54.426Z,23.91
2022-08-27T22:52:01.108Z,24.00
2022-08-27T22:55:07.257Z,24.06
2022-08-27T22:58:05.748Z,24.13
2022-08-27T23:01:12.117Z,24.04
2022-08-27T23:04:18.810Z,24.11
2022-08-27T23:07:24.028Z,24.13
2022-08-27T23:10:32.047Z,24.10
2022-08-27T23:13:38.778Z,24.17
2022-08-27T23:16:44.398Z,24.14
2022-08-27T23:19:50.947Z,23.82
2022-08-27T23:22:51.975Z,24.07
2022-08-27T23:26:03.168Z,24.03
2022-08-27T23:29:09.193Z,23.67
2022-08-27T23:32:13.976Z,23.59
2022-08-27T23:35:21.837Z,23.60
2022-08-27T23:38:29.343Z,23.58
2022-08-27T23:41:35.538Z,23.59
2022-08-27T23:44:42.463Z,23.56
2022-08-27T23:47:48.114Z,23.43
2022-08-27T23:50:54.015Z,23.43
2022-08-27T23:54:00.810Z,23.78
2022-08-27T23:57:06.397Z,23.67
